sensor_id;sensor_type;location;lat;lon;timestamp;temperature;humidity
18085;DHT22;9169;44.492;11.372;2023-06-10T00:01:27;26.40;58.70
18085;DHT22;9169;44.492;11.372;2023-06-10T00:03:57;26.40;59.00
18085;DHT22;9169;44.492;11.372;2023-06-10T00:06:25;26.40;59.10
18085;DHT22;9169;44.492;11.372;2023-06-10T00:08:55;26.40;59.30
18085;DHT22;9169;44.492;11.372;2023-06-10T00:11:25;26.30;59.40
18085;DHT22;9169;44.492;11.372;2023-06-10T00:13:54;26.30;59.10
18085;DHT22;9169;44.492;11.372;2023-06-10T00:16:22;26.30;58.80
18085;DHT22;9169;44.492;11.372;2023-06-10T00:18:51;26.30;58.80
18085;DHT22;9169;44.492;11.372;2023-06-10T00:21:22;26.30;59.00
18085;DHT22;9169;44.492;11.372;2023-06-10T00:23:52;26.20;58.90
18085;DHT22;9169;44.492;11.372;2023-06-10T00:26:22;26.20;59.10
18085;DHT22;9169;44.492;11.372;2023-06-10T00:28:52;26.30;59.50
18085;DHT22;9169;44.492;11.372;2023-06-10T00:31:21;26.20;60.20
18085;DHT22;9169;44.492;11.372;2023-06-10T00:33:50;26.10;60.70
18085;DHT22;9169;44.492;11.372;2023-06-10T00:36:18;26.10;61.10
18085;DHT22;9169;44.492;11.372;2023-06-10T00:38:47;26.10;61.80
18085;DHT22;9169;44.492;11.372;2023-06-10T00:41:16;26.10;62.30
18085;DHT22;9169;44.492;11.372;2023-06-10T00:43:45;26.10;62.30
18085;DHT22;9169;44.492;11.372;2023-06-10T00:46:16;26.00;62.60
18085;DHT22;9169;44.492;11.372;2023-06-10T00:48:45;26.10;62.70
18085;DHT22;9169;44.492;11.372;2023-06-10T00:51:15;26.00;62.90
18085;DHT22;9169;44.492;11.372;2023-06-10T00:53:45;26.00;63.00
18085;DHT22;9169;44.492;11.372;2023-06-10T00:56:14;25.90;63.30
18085;DHT22;9169;44.492;11.372;2023-06-10T00:58:43;25.90;63.10
18085;DHT22;9169;44.492;11.372;2023-06-10T01:01:12;25.80;63.40
18085;DHT22;9169;44.492;11.372;2023-06-10T01:03:42;25.80;63.40
18085;DHT22;9169;44.492;11.372;2023-06-10T01:06:18;25.80;64.00
18085;DHT22;9169;44.492;11.372;2023-06-10T01:08:54;25.80;64.20
18085;DHT22;9169;44.492;11.372;2023-06-10T01:11:28;25.80;64.10
18085;DHT22;9169;44.492;11.372;2023-06-10T01:13:58;25.80;64.00
18085;DHT22;9169;44.492;11.372;2023-06-10T01:16:27;25.80;63.80
18085;DHT22;9169;44.492;11.372;2023-06-10T01:18:57;25.80;64.00
18085;DHT22;9169;44.492;11.372;2023-06-10T01:21:28;25.70;64.20
18085;DHT22;9169;44.492;11.372;2023-06-10T01:24:00;25.70;64.80
18085;DHT22;9169;44.492;11.372;2023-06-10T01:26:30;25.70;64.30
18085;DHT22;9169;44.492;11.372;2023-06-10T01:29:04;25.70;64.80
18085;DHT22;9169;44.492;11.372;2023-06-10T01:31:41;25.60;64.60
18085;DHT22;9169;44.492;11.372;2023-06-10T01:34:13;25.60;64.70
18085;DHT22;9169;44.492;11.372;2023-06-10T01:36:46;25.50;65.00
18085;DHT22;9169;44.492;11.372;2023-06-10T01:39:15;25.50;64.50
18085;DHT22;9169;44.492;11.372;2023-06-10T01:41:44;25.50;64.40
18085;DHT22;9169;44.492;11.372;2023-06-10T01:44:17;25.50;64.00
18085;DHT22;9169;44.492;11.372;2023-06-10T01:46:46;25.50;64.20
18085;DHT22;9169;44.492;11.372;2023-06-10T01:49:14;25.50;64.80
18085;DHT22;9169;44.492;11.372;2023-06-10T01:51:45;25.50;64.40
18085;DHT22;9169;44.492;11.372;2023-06-10T01:54:13;25.50;65.00
18085;DHT22;9169;44.492;11.372;2023-06-10T01:56:42;25.40;64.60
18085;DHT22;9169;44.492;11.372;2023-06-10T01:59:11;25.40;64.40
18085;DHT22;9169;44.492;11.372;2023-06-10T02:01:39;25.40;64.50
18085;DHT22;9169;44.492;11.372;2023-06-10T02:04:10;25.40;65.10
18085;DHT22;9169;44.492;11.372;2023-06-10T02:06:38;25.40;65.10
18085;DHT22;9169;44.492;11.372;2023-06-10T02:09:08;25.30;64.60
18085;DHT22;9169;44.492;11.372;2023-06-10T02:11:37;25.30;64.40
18085;DHT22;9169;44.492;11.372;2023-06-10T02:14:06;25.30;65.10
18085;DHT22;9169;44.492;11.372;2023-06-10T02:16:34;25.20;65.30
18085;DHT22;9169;44.492;11.372;2023-06-10T02:19:05;25.20;65.60
18085;DHT22;9169;44.492;11.372;2023-06-10T02:21:34;25.20;65.10
18085;DHT22;9169;44.492;11.372;2023-06-10T02:24:03;25.10;64.80
18085;DHT22;9169;44.492;11.372;2023-06-10T02:26:36;25.10;64.70
18085;DHT22;9169;44.492;11.372;2023-06-10T02:29:05;25.10;64.70
18085;DHT22;9169;44.492;11.372;2023-06-10T02:31:33;25.10;65.20
18085;DHT22;9169;44.492;11.372;2023-06-10T02:34:04;25.10;65.50
18085;DHT22;9169;44.492;11.372;2023-06-10T02:36:32;25.10;65.70
18085;DHT22;9169;44.492;11.372;2023-06-10T02:39:03;25.10;66.00
18085;DHT22;9169;44.492;11.372;2023-06-10T02:41:32;25.10;65.90
18085;DHT22;9169;44.492;11.372;2023-06-10T02:44:03;25.10;66.30
18085;DHT22;9169;44.492;11.372;2023-06-10T02:46:33;25.10;66.10
18085;DHT22;9169;44.492;11.372;2023-06-10T02:49:02;25.10;65.90
18085;DHT22;9169;44.492;11.372;2023-06-10T02:51:30;25.10;65.70
18085;DHT22;9169;44.492;11.372;2023-06-10T02:54:03;25.10;66.60
18085;DHT22;9169;44.492;11.372;2023-06-10T02:56:32;25.10;66.70
18085;DHT22;9169;44.492;11.372;2023-06-10T02:59:04;25.10;66.80
18085;DHT22;9169;44.492;11.372;2023-06-10T03:01:34;25.10;67.00
18085;DHT22;9169;44.492;11.372;2023-06-10T03:04:08;25.10;67.00
18085;DHT22;9169;44.492;11.372;2023-06-10T03:06:37;25.10;66.80
18085;DHT22;9169;44.492;11.372;2023-06-10T03:09:17;25.10;66.80
18085;DHT22;9169;44.492;11.372;2023-06-10T03:11:48;25.20;67.20
18085;DHT22;9169;44.492;11.372;2023-06-10T03:14:18;25.10;67.50
18085;DHT22;9169;44.492;11.372;2023-06-10T03:16:46;25.20;67.30
18085;DHT22;9169;44.492;11.372;2023-06-10T03:19:15;25.20;67.10
18085;DHT22;9169;44.492;11.372;2023-06-10T03:21:49;25.20;67.20
18085;DHT22;9169;44.492;11.372;2023-06-10T03:24:18;25.20;67.50
18085;DHT22;9169;44.492;11.372;2023-06-10T03:26:47;25.20;67.90
18085;DHT22;9169;44.492;11.372;2023-06-10T03:29:18;25.20;67.70
18085;DHT22;9169;44.492;11.372;2023-06-10T03:31:47;25.20;68.30
18085;DHT22;9169;44.492;11.372;2023-06-10T03:34:16;25.10;68.10
18085;DHT22;9169;44.492;11.372;2023-06-10T03:36:44;25.20;67.90
18085;DHT22;9169;44.492;11.372;2023-06-10T03:39:13;25.10;67.60
18085;DHT22;9169;44.492;11.372;2023-06-10T03:41:42;25.10;67.40
18085;DHT22;9169;44.492;11.372;2023-06-10T03:44:11;25.20;67.50
18085;DHT22;9169;44.492;11.372;2023-06-10T03:46:41;25.10;67.40
18085;DHT22;9169;44.492;11.372;2023-06-10T03:49:10;25.20;68.60
18085;DHT22;9169;44.492;11.372;2023-06-10T03:51:40;25.10;68.20
18085;DHT22;9169;44.492;11.372;2023-06-10T03:54:09;25.10;69.00
18085;DHT22;9169;44.492;11.372;2023-06-10T03:56:39;25.10;69.50
18085;DHT22;9169;44.492;11.372;2023-06-10T03:59:07;25.10;70.00
18085;DHT22;9169;44.492;11.372;2023-06-10T04:01:36;25.00;69.90
18085;DHT22;9169;44.492;11.372;2023-06-10T04:04:09;25.00;69.70
18085;DHT22;9169;44.492;11.372;2023-06-10T04:06:38;25.00;69.90
18085;DHT22;9169;44.492;11.372;2023-06-10T04:09:08;25.00;69.60
18085;DHT22;9169;44.492;11.372;2023-06-10T04:11:37;25.00;71.00
18085;DHT22;9169;44.492;11.372;2023-06-10T04:14:06;25.00;70.30
18085;DHT22;9169;44.492;11.372;2023-06-10T04:16:36;25.00;70.00
18085;DHT22;9169;44.492;11.372;2023-06-10T04:19:05;25.00;69.80
18085;DHT22;9169;44.492;11.372;2023-06-10T04:21:35;25.00;69.50
18085;DHT22;9169;44.492;11.372;2023-06-10T04:24:04;25.00;69.30
18085;DHT22;9169;44.492;11.372;2023-06-10T04:26:35;25.10;69.20
18085;DHT22;9169;44.492;11.372;2023-06-10T04:29:04;25.10;69.60
18085;DHT22;9169;44.492;11.372;2023-06-10T04:31:33;25.10;69.40
18085;DHT22;9169;44.492;11.372;2023-06-10T04:34:02;25.10;69.40
18085;DHT22;9169;44.492;11.372;2023-06-10T04:36:32;25.10;69.40
18085;DHT22;9169;44.492;11.372;2023-06-10T04:39:02;25.10;69.40
18085;DHT22;9169;44.492;11.372;2023-06-10T04:41:32;25.10;69.40
18085;DHT22;9169;44.492;11.372;2023-06-10T04:44:00;25.10;69.40
18085;DHT22;9169;44.492;11.372;2023-06-10T04:46:29;25.10;70.00
18085;DHT22;9169;44.492;11.372;2023-06-10T04:48:58;25.10;70.10
18085;DHT22;9169;44.492;11.372;2023-06-10T04:51:27;25.10;70.30
18085;DHT22;9169;44.492;11.372;2023-06-10T04:53:56;25.10;70.40
18085;DHT22;9169;44.492;11.372;2023-06-10T04:56:26;25.10;70.10
18085;DHT22;9169;44.492;11.372;2023-06-10T04:58:56;25.10;70.40
18085;DHT22;9169;44.492;11.372;2023-06-10T05:01:24;25.00;70.20
18085;DHT22;9169;44.492;11.372;2023-06-10T05:03:53;25.00;70.30
18085;DHT22;9169;44.492;11.372;2023-06-10T05:06:21;25.10;70.70
18085;DHT22;9169;44.492;11.372;2023-06-10T05:08:50;25.10;71.30
18085;DHT22;9169;44.492;11.372;2023-06-10T05:11:18;25.10;71.30
18085;DHT22;9169;44.492;11.372;2023-06-10T05:13:48;25.10;71.10
18085;DHT22;9169;44.492;11.372;2023-06-10T05:16:17;25.10;71.40
18085;DHT22;9169;44.492;11.372;2023-06-10T05:18:45;25.10;70.90
18085;DHT22;9169;44.492;11.372;2023-06-10T05:21:14;25.10;71.00
18085;DHT22;9169;44.492;11.372;2023-06-10T05:23:42;25.10;71.40
18085;DHT22;9169;44.492;11.372;2023-06-10T05:26:11;25.10;71.20
18085;DHT22;9169;44.492;11.372;2023-06-10T05:28:39;25.10;71.40
18085;DHT22;9169;44.492;11.372;2023-06-10T05:31:10;25.00;70.90
18085;DHT22;9169;44.492;11.372;2023-06-10T05:33:39;25.00;70.70
18085;DHT22;9169;44.492;11.372;2023-06-10T05:36:07;25.00;70.80
18085;DHT22;9169;44.492;11.372;2023-06-10T05:38:36;25.00;70.90
18085;DHT22;9169;44.492;11.372;2023-06-10T05:41:04;25.00;70.90
18085;DHT22;9169;44.492;11.372;2023-06-10T05:43:33;25.00;71.50
18085;DHT22;9169;44.492;11.372;2023-06-10T05:46:02;25.00;71.20
18085;DHT22;9169;44.492;11.372;2023-06-10T05:48:31;24.90;70.80
18085;DHT22;9169;44.492;11.372;2023-06-10T05:51:00;24.90;71.00
18085;DHT22;9169;44.492;11.372;2023-06-10T05:53:28;24.90;71.20
18085;DHT22;9169;44.492;11.372;2023-06-10T05:55:57;25.00;71.60
18085;DHT22;9169;44.492;11.372;2023-06-10T05:58:26;25.00;71.80
18085;DHT22;9169;44.492;11.372;2023-06-10T06:00:54;25.00;71.90
18085;DHT22;9169;44.492;11.372;2023-06-10T06:03:22;25.10;71.80
18085;DHT22;9169;44.492;11.372;2023-06-10T06:05:52;25.10;71.90
18085;DHT22;9169;44.492;11.372;2023-06-10T06:08:21;25.10;72.00
18085;DHT22;9169;44.492;11.372;2023-06-10T06:10:50;25.10;72.00
18085;DHT22;9169;44.492;11.372;2023-06-10T06:13:18;25.20;72.50
18085;DHT22;9169;44.492;11.372;2023-06-10T06:15:46;25.30;72.70
18085;DHT22;9169;44.492;11.372;2023-06-10T06:18:15;25.30;72.50
18085;DHT22;9169;44.492;11.372;2023-06-10T06:20:45;25.40;72.60
18085;DHT22;9169;44.492;11.372;2023-06-10T06:23:15;25.40;72.80
18085;DHT22;9169;44.492;11.372;2023-06-10T06:25:43;25.50;72.70
18085;DHT22;9169;44.492;11.372;2023-06-10T06:28:12;25.50;72.60
18085;DHT22;9169;44.492;11.372;2023-06-10T06:30:40;25.60;72.20
18085;DHT22;9169;44.492;11.372;2023-06-10T06:33:09;25.60;71.80
18085;DHT22;9169;44.492;11.372;2023-06-10T06:35:38;25.70;71.80
18085;DHT22;9169;44.492;11.372;2023-06-10T06:38:07;25.70;71.60
18085;DHT22;9169;44.492;11.372;2023-06-10T06:40:37;25.80;71.70
18085;DHT22;9169;44.492;11.372;2023-06-10T06:43:06;25.80;72.00
18085;DHT22;9169;44.492;11.372;2023-06-10T06:45:55;25.80;71.80
18085;DHT22;9169;44.492;11.372;2023-06-10T06:48:24;25.90;71.80
18085;DHT22;9169;44.492;11.372;2023-06-10T06:50:52;25.90;72.00
18085;DHT22;9169;44.492;11.372;2023-06-10T06:53:23;26.00;71.30
18085;DHT22;9169;44.492;11.372;2023-06-10T06:55:53;26.00;70.90
18085;DHT22;9169;44.492;11.372;2023-06-10T06:58:22;26.10;71.40
18085;DHT22;9169;44.492;11.372;2023-06-10T07:00:50;26.10;71.50
18085;DHT22;9169;44.492;11.372;2023-06-10T07:03:20;26.30;71.90
18085;DHT22;9169;44.492;11.372;2023-06-10T07:05:49;26.30;72.20
18085;DHT22;9169;44.492;11.372;2023-06-10T07:08:17;26.50;70.50
18085;DHT22;9169;44.492;11.372;2023-06-10T07:10:46;26.50;69.80
18085;DHT22;9169;44.492;11.372;2023-06-10T07:13:17;26.60;69.20
18085;DHT22;9169;44.492;11.372;2023-06-10T07:15:46;26.70;69.00
18085;DHT22;9169;44.492;11.372;2023-06-10T07:18:15;26.80;68.70
18085;DHT22;9169;44.492;11.372;2023-06-10T07:20:46;27.00;68.60
18085;DHT22;9169;44.492;11.372;2023-06-10T07:23:14;26.90;67.90
18085;DHT22;9169;44.492;11.372;2023-06-10T07:25:43;26.90;67.10
18085;DHT22;9169;44.492;11.372;2023-06-10T07:28:11;27.00;66.30
18085;DHT22;9169;44.492;11.372;2023-06-10T07:30:41;27.10;66.20
18085;DHT22;9169;44.492;11.372;2023-06-10T07:33:10;27.10;66.20
18085;DHT22;9169;44.492;11.372;2023-06-10T07:35:38;27.20;65.80
18085;DHT22;9169;44.492;11.372;2023-06-10T07:38:07;27.20;65.80
18085;DHT22;9169;44.492;11.372;2023-06-10T07:40:35;27.20;65.60
18085;DHT22;9169;44.492;11.372;2023-06-10T07:43:04;27.20;65.30
18085;DHT22;9169;44.492;11.372;2023-06-10T07:45:32;27.30;64.50
18085;DHT22;9169;44.492;11.372;2023-06-10T07:48:03;27.30;64.40
18085;DHT22;9169;44.492;11.372;2023-06-10T07:50:31;27.30;63.20
18085;DHT22;9169;44.492;11.372;2023-06-10T07:53:00;27.40;62.60
18085;DHT22;9169;44.492;11.372;2023-06-10T07:55:28;27.40;61.70
18085;DHT22;9169;44.492;11.372;2023-06-10T07:57:57;27.40;61.00
18085;DHT22;9169;44.492;11.372;2023-06-10T08:00:26;27.40;60.30
18085;DHT22;9169;44.492;11.372;2023-06-10T08:02:54;27.40;60.10
18085;DHT22;9169;44.492;11.372;2023-06-10T08:05:24;27.40;60.00
18085;DHT22;9169;44.492;11.372;2023-06-10T08:07:53;27.40;60.20
18085;DHT22;9169;44.492;11.372;2023-06-10T08:10:22;27.40;60.50
18085;DHT22;9169;44.492;11.372;2023-06-10T08:12:50;27.40;60.40
18085;DHT22;9169;44.492;11.372;2023-06-10T08:15:19;27.40;60.30
18085;DHT22;9169;44.492;11.372;2023-06-10T08:17:48;27.40;60.00
18085;DHT22;9169;44.492;11.372;2023-06-10T08:20:17;27.40;60.00
18085;DHT22;9169;44.492;11.372;2023-06-10T08:22:47;27.40;60.30
18085;DHT22;9169;44.492;11.372;2023-06-10T08:25:16;27.40;60.50
18085;DHT22;9169;44.492;11.372;2023-06-10T08:27:44;27.40;60.80
18085;DHT22;9169;44.492;11.372;2023-06-10T08:30:13;27.40;61.00
18085;DHT22;9169;44.492;11.372;2023-06-10T08:32:42;27.40;61.20
18085;DHT22;9169;44.492;11.372;2023-06-10T08:35:11;27.40;61.40
18085;DHT22;9169;44.492;11.372;2023-06-10T08:37:39;27.40;61.20
18085;DHT22;9169;44.492;11.372;2023-06-10T08:40:11;27.40;61.30
18085;DHT22;9169;44.492;11.372;2023-06-10T08:42:43;27.40;61.70
18085;DHT22;9169;44.492;11.372;2023-06-10T08:45:17;27.40;61.70
18085;DHT22;9169;44.492;11.372;2023-06-10T08:47:46;27.40;61.70
18085;DHT22;9169;44.492;11.372;2023-06-10T08:50:19;27.50;61.80
18085;DHT22;9169;44.492;11.372;2023-06-10T08:52:50;27.50;62.20
18085;DHT22;9169;44.492;11.372;2023-06-10T08:55:27;27.60;62.40
18085;DHT22;9169;44.492;11.372;2023-06-10T08:57:58;27.60;62.70
18085;DHT22;9169;44.492;11.372;2023-06-10T09:00:27;27.70;62.50
18085;DHT22;9169;44.492;11.372;2023-06-10T09:02:57;27.70;62.20
18085;DHT22;9169;44.492;11.372;2023-06-10T09:05:29;27.80;61.80
18085;DHT22;9169;44.492;11.372;2023-06-10T09:07:57;27.90;61.70
18085;DHT22;9169;44.492;11.372;2023-06-10T09:10:29;28.00;61.20
18085;DHT22;9169;44.492;11.372;2023-06-10T09:12:58;28.10;61.30
18085;DHT22;9169;44.492;11.372;2023-06-10T09:15:27;28.10;61.40
18085;DHT22;9169;44.492;11.372;2023-06-10T09:17:55;28.20;61.20
18085;DHT22;9169;44.492;11.372;2023-06-10T09:20:24;28.20;60.90
18085;DHT22;9169;44.492;11.372;2023-06-10T09:22:53;28.30;60.60
18085;DHT22;9169;44.492;11.372;2023-06-10T09:25:36;28.40;60.40
18085;DHT22;9169;44.492;11.372;2023-06-10T09:28:08;28.50;60.50
18085;DHT22;9169;44.492;11.372;2023-06-10T09:30:41;28.50;60.30
18085;DHT22;9169;44.492;11.372;2023-06-10T09:33:11;28.50;59.70
18085;DHT22;9169;44.492;11.372;2023-06-10T09:35:45;28.50;59.30
18085;DHT22;9169;44.492;11.372;2023-06-10T09:38:15;28.50;59.10
18085;DHT22;9169;44.492;11.372;2023-06-10T09:40:52;28.50;59.10
18085;DHT22;9169;44.492;11.372;2023-06-10T09:43:21;28.50;59.10
18085;DHT22;9169;44.492;11.372;2023-06-10T09:45:50;28.50;58.90
18085;DHT22;9169;44.492;11.372;2023-06-10T09:48:21;28.50;58.80
18085;DHT22;9169;44.492;11.372;2023-06-10T09:50:50;28.60;58.90
18085;DHT22;9169;44.492;11.372;2023-06-10T09:53:20;28.60;59.00
18085;DHT22;9169;44.492;11.372;2023-06-10T09:55:50;28.80;59.40
18085;DHT22;9169;44.492;11.372;2023-06-10T09:58:34;28.80;59.50
18085;DHT22;9169;44.492;11.372;2023-06-10T10:01:06;28.90;59.00
18085;DHT22;9169;44.492;11.372;2023-06-10T10:03:43;28.90;58.60
18085;DHT22;9169;44.492;11.372;2023-06-10T10:06:14;29.00;58.30
18085;DHT22;9169;44.492;11.372;2023-06-10T10:08:45;29.00;58.80
18085;DHT22;9169;44.492;11.372;2023-06-10T10:11:14;29.10;59.10
18085;DHT22;9169;44.492;11.372;2023-06-10T10:13:48;29.20;58.80
18085;DHT22;9169;44.492;11.372;2023-06-10T10:16:19;29.30;58.50
18085;DHT22;9169;44.492;11.372;2023-06-10T10:18:52;29.40;58.40
18085;DHT22;9169;44.492;11.372;2023-06-10T10:21:24;29.50;58.40
18085;DHT22;9169;44.492;11.372;2023-06-10T10:24:02;29.60;57.90
18085;DHT22;9169;44.492;11.372;2023-06-10T10:26:33;29.60;57.70
18085;DHT22;9169;44.492;11.372;2023-06-10T10:29:10;29.80;57.70
18085;DHT22;9169;44.492;11.372;2023-06-10T10:31:41;29.80;57.40
18085;DHT22;9169;44.492;11.372;2023-06-10T10:34:15;30.00;56.80
18085;DHT22;9169;44.492;11.372;2023-06-10T10:36:45;30.00;56.80
18085;DHT22;9169;44.492;11.372;2023-06-10T10:39:15;30.00;56.80
18085;DHT22;9169;44.492;11.372;2023-06-10T10:41:44;30.10;56.60
18085;DHT22;9169;44.492;11.372;2023-06-10T10:44:15;30.20;56.20
18085;DHT22;9169;44.492;11.372;2023-06-10T10:46:44;30.20;56.20
18085;DHT22;9169;44.492;11.372;2023-06-10T10:49:17;30.30;55.80
18085;DHT22;9169;44.492;11.372;2023-06-10T10:51:56;30.40;55.90
18085;DHT22;9169;44.492;11.372;2023-06-10T10:54:29;30.50;56.20
18085;DHT22;9169;44.492;11.372;2023-06-10T10:57:11;30.40;55.40
18085;DHT22;9169;44.492;11.372;2023-06-10T10:59:53;30.40;54.80
18085;DHT22;9169;44.492;11.372;2023-06-10T11:02:37;30.30;54.90
18085;DHT22;9169;44.492;11.372;2023-06-10T11:05:12;30.30;55.20
18085;DHT22;9169;44.492;11.372;2023-06-10T11:07:52;30.40;55.30
18085;DHT22;9169;44.492;11.372;2023-06-10T11:10:29;30.50;55.00
18085;DHT22;9169;44.492;11.372;2023-06-10T11:12:59;30.90;55.50
18085;DHT22;9169;44.492;11.372;2023-06-10T11:15:29;30.80;54.80
18085;DHT22;9169;44.492;11.372;2023-06-10T11:18:09;30.90;54.10
18085;DHT22;9169;44.492;11.372;2023-06-10T11:20:58;30.80;53.80
18085;DHT22;9169;44.492;11.372;2023-06-10T11:23:39;30.90;53.80
18085;DHT22;9169;44.492;11.372;2023-06-10T11:26:16;31.00;54.10
18085;DHT22;9169;44.492;11.372;2023-06-10T11:29:07;31.10;54.50
18085;DHT22;9169;44.492;11.372;2023-06-10T11:31:45;31.30;54.30
18085;DHT22;9169;44.492;11.372;2023-06-10T11:34:20;31.40;54.20
18085;DHT22;9169;44.492;11.372;2023-06-10T11:36:51;31.70;54.10
18085;DHT22;9169;44.492;11.372;2023-06-10T11:39:21;32.10;53.90
18085;DHT22;9169;44.492;11.372;2023-06-10T11:41:51;32.50;53.30
18085;DHT22;9169;44.492;11.372;2023-06-10T11:44:20;32.80;52.20
18085;DHT22;9169;44.492;11.372;2023-06-10T11:46:50;32.90;51.50
18085;DHT22;9169;44.492;11.372;2023-06-10T11:49:20;32.90;50.80
18085;DHT22;9169;44.492;11.372;2023-06-10T11:51:49;32.80;50.70
18085;DHT22;9169;44.492;11.372;2023-06-10T11:54:19;32.80;50.80
18085;DHT22;9169;44.492;11.372;2023-06-10T11:56:49;32.80;50.40
18085;DHT22;9169;44.492;11.372;2023-06-10T11:59:17;32.60;50.00
18085;DHT22;9169;44.492;11.372;2023-06-10T12:01:46;32.50;50.00
18085;DHT22;9169;44.492;11.372;2023-06-10T12:04:16;32.30;50.30
18085;DHT22;9169;44.492;11.372;2023-06-10T12:06:47;32.20;50.20
18085;DHT22;9169;44.492;11.372;2023-06-10T12:09:19;31.90;50.20
18085;DHT22;9169;44.492;11.372;2023-06-10T12:11:55;31.70;50.50
18085;DHT22;9169;44.492;11.372;2023-06-10T12:14:52;31.50;50.80
18085;DHT22;9169;44.492;11.372;2023-06-10T12:17:35;31.40;50.90
18085;DHT22;9169;44.492;11.372;2023-06-10T12:20:07;31.20;50.80
18085;DHT22;9169;44.492;11.372;2023-06-10T12:22:37;31.10;51.00
18085;DHT22;9169;44.492;11.372;2023-06-10T12:25:08;30.90;51.40
18085;DHT22;9169;44.492;11.372;2023-06-10T12:27:37;30.80;51.60
18085;DHT22;9169;44.492;11.372;2023-06-10T12:30:10;30.60;51.80
18085;DHT22;9169;44.492;11.372;2023-06-10T12:32:47;30.50;51.80
18085;DHT22;9169;44.492;11.372;2023-06-10T12:35:19;30.40;51.90
18085;DHT22;9169;44.492;11.372;2023-06-10T12:37:55;30.30;51.50
18085;DHT22;9169;44.492;11.372;2023-06-10T12:40:28;30.10;51.30
18085;DHT22;9169;44.492;11.372;2023-06-10T12:42:58;30.00;51.40
18085;DHT22;9169;44.492;11.372;2023-06-10T12:45:27;29.90;51.50
18085;DHT22;9169;44.492;11.372;2023-06-10T12:48:07;29.80;51.60
18085;DHT22;9169;44.492;11.372;2023-06-10T12:50:39;29.80;51.60
18085;DHT22;9169;44.492;11.372;2023-06-10T12:53:09;29.70;52.10
18085;DHT22;9169;44.492;11.372;2023-06-10T12:55:39;29.70;51.60
18085;DHT22;9169;44.492;11.372;2023-06-10T12:58:07;29.60;51.50
18085;DHT22;9169;44.492;11.372;2023-06-10T13:00:36;29.60;51.50
18085;DHT22;9169;44.492;11.372;2023-06-10T13:03:05;29.50;51.50
18085;DHT22;9169;44.492;11.372;2023-06-10T13:05:35;29.50;51.70
18085;DHT22;9169;44.492;11.372;2023-06-10T13:08:07;29.40;51.90
18085;DHT22;9169;44.492;11.372;2023-06-10T13:10:37;29.40;51.90
18085;DHT22;9169;44.492;11.372;2023-06-10T13:13:06;29.40;52.00
18085;DHT22;9169;44.492;11.372;2023-06-10T13:15:37;29.40;52.00
18085;DHT22;9169;44.492;11.372;2023-06-10T13:18:09;29.40;52.10
18085;DHT22;9169;44.492;11.372;2023-06-10T13:20:37;29.40;52.30
18085;DHT22;9169;44.492;11.372;2023-06-10T13:23:07;29.50;52.30
18085;DHT22;9169;44.492;11.372;2023-06-10T13:25:36;29.70;52.30
18085;DHT22;9169;44.492;11.372;2023-06-10T13:28:05;29.90;51.90
18085;DHT22;9169;44.492;11.372;2023-06-10T13:30:33;30.10;51.50
18085;DHT22;9169;44.492;11.372;2023-06-10T13:33:02;30.10;51.50
18085;DHT22;9169;44.492;11.372;2023-06-10T13:35:31;30.10;51.40
18085;DHT22;9169;44.492;11.372;2023-06-10T13:37:59;30.10;51.50
18085;DHT22;9169;44.492;11.372;2023-06-10T13:40:29;30.00;51.40
18085;DHT22;9169;44.492;11.372;2023-06-10T13:43:01;29.90;51.60
18085;DHT22;9169;44.492;11.372;2023-06-10T13:45:30;29.80;51.50
18085;DHT22;9169;44.492;11.372;2023-06-10T13:47:58;29.70;51.40
18085;DHT22;9169;44.492;11.372;2023-06-10T13:50:28;29.70;51.40
18085;DHT22;9169;44.492;11.372;2023-06-10T13:52:56;29.60;52.10
18085;DHT22;9169;44.492;11.372;2023-06-10T13:55:25;29.60;52.60
18085;DHT22;9169;44.492;11.372;2023-06-10T13:57:56;29.50;52.90
18085;DHT22;9169;44.492;11.372;2023-06-10T14:00:24;29.40;53.20
18085;DHT22;9169;44.492;11.372;2023-06-10T14:02:54;29.40;53.20
18085;DHT22;9169;44.492;11.372;2023-06-10T14:05:23;29.20;53.10
18085;DHT22;9169;44.492;11.372;2023-06-10T14:07:52;29.20;53.20
18085;DHT22;9169;44.492;11.372;2023-06-10T14:10:21;29.10;53.20
18085;DHT22;9169;44.492;11.372;2023-06-10T14:12:50;29.00;53.40
18085;DHT22;9169;44.492;11.372;2023-06-10T14:15:20;28.90;53.50
18085;DHT22;9169;44.492;11.372;2023-06-10T14:17:48;28.90;53.90
18085;DHT22;9169;44.492;11.372;2023-06-10T14:20:17;28.80;54.20
18085;DHT22;9169;44.492;11.372;2023-06-10T14:22:46;28.70;54.50
18085;DHT22;9169;44.492;11.372;2023-06-10T14:25:14;28.60;54.60
18085;DHT22;9169;44.492;11.372;2023-06-10T14:27:44;28.60;54.70
18085;DHT22;9169;44.492;11.372;2023-06-10T14:30:14;28.50;55.40
18085;DHT22;9169;44.492;11.372;2023-06-10T14:32:44;28.50;55.10
18085;DHT22;9169;44.492;11.372;2023-06-10T14:35:13;28.40;55.40
18085;DHT22;9169;44.492;11.372;2023-06-10T14:37:42;28.40;55.70
18085;DHT22;9169;44.492;11.372;2023-06-10T14:40:11;28.40;56.00
18085;DHT22;9169;44.492;11.372;2023-06-10T14:42:40;28.40;56.00
18085;DHT22;9169;44.492;11.372;2023-06-10T14:45:12;28.30;56.20
18085;DHT22;9169;44.492;11.372;2023-06-10T14:47:43;28.30;56.60
18085;DHT22;9169;44.492;11.372;2023-06-10T14:50:12;28.20;56.80
18085;DHT22;9169;44.492;11.372;2023-06-10T14:52:41;28.10;56.20
18085;DHT22;9169;44.492;11.372;2023-06-10T14:55:09;28.00;55.70
18085;DHT22;9169;44.492;11.372;2023-06-10T14:57:38;27.90;55.70
18085;DHT22;9169;44.492;11.372;2023-06-10T15:00:08;27.90;55.50
18085;DHT22;9169;44.492;11.372;2023-06-10T15:02:37;27.70;55.30
18085;DHT22;9169;44.492;11.372;2023-06-10T15:05:07;27.80;55.30
18085;DHT22;9169;44.492;11.372;2023-06-10T15:07:36;27.70;55.30
18085;DHT22;9169;44.492;11.372;2023-06-10T15:10:06;27.70;55.20
18085;DHT22;9169;44.492;11.372;2023-06-10T15:12:34;27.70;55.10
18085;DHT22;9169;44.492;11.372;2023-06-10T15:15:04;27.60;55.00
18085;DHT22;9169;44.492;11.372;2023-06-10T15:17:33;27.60;55.20
18085;DHT22;9169;44.492;11.372;2023-06-10T15:20:07;27.60;55.20
18085;DHT22;9169;44.492;11.372;2023-06-10T15:22:36;27.60;55.30
18085;DHT22;9169;44.492;11.372;2023-06-10T15:25:06;27.50;55.50
18085;DHT22;9169;44.492;11.372;2023-06-10T15:27:47;27.60;55.70
18085;DHT22;9169;44.492;11.372;2023-06-10T15:30:16;27.60;55.70
18085;DHT22;9169;44.492;11.372;2023-06-10T15:32:44;27.60;55.70
18085;DHT22;9169;44.492;11.372;2023-06-10T15:35:15;27.60;55.50
18085;DHT22;9169;44.492;11.372;2023-06-10T15:37:43;27.60;56.10
18085;DHT22;9169;44.492;11.372;2023-06-10T15:40:12;27.60;55.60
18085;DHT22;9169;44.492;11.372;2023-06-10T15:42:41;27.70;55.80
18085;DHT22;9169;44.492;11.372;2023-06-10T15:45:10;27.80;55.90
18085;DHT22;9169;44.492;11.372;2023-06-10T15:47:39;27.80;56.00
18085;DHT22;9169;44.492;11.372;2023-06-10T15:50:09;27.80;55.90